Terminal Aerodrome Forecast
Issued by NWS

Home | Current Version | Previous Version | Text Only | Print | Product List | Glossary On
Versions: 1 2 3 4 5 6 7 8 9 10 11 12 13
000
FTUS44 KTSA 301133
TAFMLC
TAF
KMLC 301133Z 3012/3112 14005KT P6SM SCT080
      TEMPO 3012/3014 4SM BR
     FM301800 20008KT P6SM SCT050
     FM310100 16004KT P6SM SKC=

USA.gov is the U.S. government's official web portal to all federal, state and local government web resources and services.